Time;durP1;ratioP1;P1;durP2;ratioP2;P2;SDS_P1;SDS_P2;PMS_P1;PMS_P2;Temp;Humidity;BMP_temperature;BMP_pressure;BME280_temperature;BME280_humidity;BME280_pressure;Samples;Min_cycle;Max_cycle;Signal;HPM_P1;HPM_P2
2023/08/16 00:00:04;;;;;;;3.77;2.80;;;25.90;84.80;;;;;;5091296;28;20413;-71
2023/08/16 00:02:31;;;;;;;4.63;3.03;;;25.90;84.80;;;;;;5072090;28;20205;-70
2023/08/16 00:04:58;;;;;;;5.03;3.20;;;25.90;84.90;;;;;;5083158;28;20660;-71
2023/08/16 00:07:25;;;;;;;5.97;3.00;;;25.90;85.00;;;;;;5091766;28;20231;-71
2023/08/16 00:09:53;;;;;;;3.33;3.00;;;25.80;85.00;;;;;;5091273;28;20227;-71
2023/08/16 00:12:20;;;;;;;3.60;2.90;;;25.80;85.40;;;;;;5091718;28;20233;-71
2023/08/16 00:14:46;;;;;;;3.90;2.70;;;25.80;85.60;;;;;;5081154;28;20296;-71
2023/08/16 00:17:14;;;;;;;4.37;3.10;;;25.80;85.60;;;;;;5071658;28;20292;-71
2023/08/16 00:19:42;;;;;;;3.23;2.70;;;25.80;85.70;;;;;;5071321;28;20256;-71
2023/08/16 00:22:09;;;;;;;3.03;2.60;;;25.70;85.60;;;;;;5071533;28;20324;-71
2023/08/16 00:24:36;;;;;;;3.07;2.83;;;25.70;85.70;;;;;;5070839;28;20219;-71
2023/08/16 00:27:04;;;;;;;3.90;2.80;;;25.70;85.70;;;;;;5071048;28;20205;-71
2023/08/16 00:29:31;;;;;;;4.43;2.90;;;25.70;85.80;;;;;;5071359;28;20568;-71
2023/08/16 00:32:00;;;;;;;3.37;2.70;;;25.70;85.90;;;;;;5071215;28;20235;-71
2023/08/16 00:34:28;;;;;;;2.90;2.70;;;25.70;86.10;;;;;;5072271;28;20814;-70
2023/08/16 00:36:54;;;;;;;3.83;2.97;;;25.70;86.20;;;;;;5071324;28;20205;-71
2023/08/16 00:39:21;;;;;;;3.27;2.97;;;25.60;86.50;;;;;;5070246;28;20487;-71
2023/08/16 00:41:48;;;;;;;3.00;2.70;;;25.60;86.40;;;;;;5070943;28;20204;-71
2023/08/16 00:44:16;;;;;;;5.53;3.40;;;25.60;86.40;;;;;;5088403;28;20703;-71
2023/08/16 00:46:43;;;;;;;3.40;3.10;;;25.60;86.70;;;;;;5091519;28;20188;-71
2023/08/16 00:49:10;;;;;;;3.40;2.97;;;25.50;86.70;;;;;;5091164;28;20200;-70
2023/08/16 00:51:37;;;;;;;4.27;3.30;;;25.50;86.60;;;;;;5091034;28;20710;-71
2023/08/16 00:54:06;;;;;;;4.53;3.10;;;25.50;86.40;;;;;;5083125;28;20671;-70
2023/08/16 00:56:33;;;;;;;4.27;3.13;;;25.40;86.50;;;;;;5078523;28;20228;-71
2023/08/16 00:59:00;;;;;;;4.10;3.00;;;25.40;86.80;;;;;;5089697;28;20231;-71
2023/08/16 01:01:28;;;;;;;4.80;2.90;;;25.40;86.90;;;;;;5090574;28;20694;-71
2023/08/16 01:03:55;;;;;;;3.80;3.20;;;25.40;86.90;;;;;;5070572;28;20228;-71
2023/08/16 01:06:22;;;;;;;3.60;3.13;;;25.40;86.80;;;;;;5071065;28;20575;-70
2023/08/16 01:08:49;;;;;;;3.23;3.00;;;25.40;86.90;;;;;;5069940;28;20207;-70
2023/08/16 01:11:20;;;;;;;3.53;3.23;;;25.40;86.90;;;;;;5070827;28;20209;-70
2023/08/16 01:13:54;;;;;;;3.00;2.80;;;25.40;87.00;;;;;;5070507;28;20197;-70
2023/08/16 01:16:22;;;;;;;5.03;3.63;;;25.40;87.20;;;;;;5070700;28;20224;-70
2023/08/16 01:18:53;;;;;;;4.00;3.67;;;25.30;87.60;;;;;;5069161;28;20232;-70
2023/08/16 01:21:21;;;;;;;6.60;3.10;;;25.30;86.80;;;;;;5070122;28;20243;-70
2023/08/16 01:23:56;;;;;;;3.90;3.60;;;25.20;87.00;;;;;;5069670;28;20299;-70
2023/08/16 01:26:28;;;;;;;4.03;3.20;;;25.20;87.30;;;;;;5070525;28;20223;-70
2023/08/16 01:28:56;;;;;;;5.80;3.13;;;25.10;87.10;;;;;;5070317;28;20221;-70
2023/08/16 01:31:23;;;;;;;5.27;3.00;;;25.10;87.10;;;;;;5070684;28;20209;-70
2023/08/16 01:33:51;;;;;;;3.73;2.90;;;25.10;87.20;;;;;;5070590;28;20208;-70
2023/08/16 01:36:18;;;;;;;3.80;3.40;;;25.10;87.10;;;;;;5070519;28;20305;-70
2023/08/16 01:38:45;;;;;;;3.00;2.70;;;25.10;87.10;;;;;;5069777;28;20685;-70
2023/08/16 01:41:16;;;;;;;5.93;3.03;;;25.10;87.00;;;;;;5070451;28;20232;-70
2023/08/16 01:43:46;;;;;;;5.10;3.03;;;25.10;87.10;;;;;;5069979;28;20221;-70
2023/08/16 01:46:14;;;;;;;5.33;3.40;;;25.10;87.20;;;;;;5070609;28;20201;-70
2023/08/16 01:48:41;;;;;;;4.37;3.20;;;25.10;87.20;;;;;;5070164;28;20221;-70
2023/08/16 01:51:08;;;;;;;5.93;3.03;;;25.00;87.20;;;;;;5070037;28;20206;-70
2023/08/16 01:53:36;;;;;;;4.60;3.40;;;25.00;87.10;;;;;;5069465;28;20308;-71
2023/08/16 01:56:03;;;;;;;4.13;3.37;;;25.00;87.10;;;;;;5069894;28;20217;-70
2023/08/16 01:58:30;;;;;;;4.87;2.90;;;25.00;87.10;;;;;;5069561;28;20711;-70
2023/08/16 02:00:58;;;;;;;3.40;3.10;;;25.00;87.20;;;;;;5070329;28;20239;-70
2023/08/16 02:03:25;;;;;;;3.00;2.80;;;24.90;87.20;;;;;;5070518;28;20201;-70
2023/08/16 02:05:52;;;;;;;4.60;2.90;;;24.90;87.40;;;;;;5070154;28;20200;-70
2023/08/16 02:08:19;;;;;;;3.37;3.07;;;24.90;87.50;;;;;;5070843;28;20219;-70
2023/08/16 02:10:46;;;;;;;4.07;3.10;;;24.90;87.50;;;;;;5074119;28;20216;-70
2023/08/16 02:13:13;;;;;;;4.27;3.20;;;24.90;87.80;;;;;;5073447;28;20231;-70
2023/08/16 02:15:40;;;;;;;3.50;3.20;;;24.90;87.90;;;;;;5074059;28;20186;-70
2023/08/16 02:18:10;;;;;;;3.63;3.10;;;24.90;87.60;;;;;;5073316;28;20247;-70
2023/08/16 02:20:38;;;;;;;3.17;2.87;;;24.90;87.60;;;;;;5073092;28;20406;-70
2023/08/16 02:23:05;;;;;;;3.90;2.90;;;24.90;87.50;;;;;;5073590;28;20420;-70
2023/08/16 02:25:32;;;;;;;4.13;3.17;;;24.90;87.50;;;;;;5073445;28;20581;-70
2023/08/16 02:27:59;;;;;;;3.80;3.20;;;24.90;87.40;;;;;;5073086;28;20192;-71
2023/08/16 02:30:26;;;;;;;5.83;3.33;;;24.90;87.50;;;;;;5073609;28;20200;-70
2023/08/16 02:32:55;;;;;;;3.60;3.30;;;24.90;87.70;;;;;;5073453;28;20228;-71
2023/08/16 02:35:23;;;;;;;4.43;3.20;;;24.90;87.70;;;;;;5072942;28;20598;-70
2023/08/16 02:37:50;;;;;;;3.33;3.03;;;24.90;87.90;;;;;;5072974;28;20204;-70
2023/08/16 02:40:16;;;;;;;3.13;2.83;;;24.90;88.00;;;;;;5073492;28;20231;-71
2023/08/16 02:42:45;;;;;;;3.27;2.97;;;24.90;88.30;;;;;;5072974;28;20689;-71
2023/08/16 02:45:12;;;;;;;7.00;3.60;;;24.90;88.10;;;;;;5072929;28;20228;-71
2023/08/16 02:47:39;;;;;;;3.77;3.47;;;24.90;88.10;;;;;;5072824;28;20220;-71
2023/08/16 02:50:06;;;;;;;4.03;3.63;;;24.90;88.30;;;;;;5072650;28;20197;-70
2023/08/16 02:52:35;;;;;;;3.97;3.50;;;24.80;88.40;;;;;;5073105;28;20265;-71
2023/08/16 02:55:02;;;;;;;3.90;3.47;;;24.90;88.50;;;;;;5072744;28;20209;-71
2023/08/16 02:57:28;;;;;;;5.27;4.40;;;24.80;88.40;;;;;;5072742;28;20215;-71
2023/08/16 02:59:55;;;;;;;5.03;4.53;;;24.80;88.60;;;;;;5072962;28;20209;-71
2023/08/16 03:02:22;;;;;;;4.63;4.23;;;24.90;88.90;;;;;;5072465;28;20204;-71
2023/08/16 03:04:49;;;;;;;4.93;4.53;;;24.80;88.90;;;;;;5072303;28;20229;-71
2023/08/16 03:07:16;;;;;;;4.87;4.30;;;24.80;89.80;;;;;;5072631;28;20209;-71
2023/08/16 03:09:44;;;;;;;6.80;4.83;;;24.80;89.10;;;;;;5072399;28;20209;-71
2023/08/16 03:12:10;;;;;;;3.70;3.40;;;24.80;90.10;;;;;;5072209;28;20661;-71
2023/08/16 03:14:37;;;;;;;4.77;4.00;;;24.70;89.50;;;;;;5072711;28;20205;-71
2023/08/16 03:17:05;;;;;;;5.03;4.50;;;24.80;89.50;;;;;;5072410;28;20235;-70
2023/08/16 03:19:32;;;;;;;4.70;4.20;;;24.80;89.70;;;;;;5071153;28;20232;-70
2023/08/16 03:21:58;;;;;;;5.13;4.57;;;24.80;89.50;;;;;;5072661;28;20209;-70
2023/08/16 03:24:26;;;;;;;6.23;5.10;;;24.80;89.70;;;;;;5072396;28;20208;-70
2023/08/16 03:26:54;;;;;;;5.40;4.50;;;24.90;89.70;;;;;;5072483;28;20213;-71
2023/08/16 03:29:21;;;;;;;5.13;4.63;;;24.80;89.50;;;;;;5072267;28;20204;-71
2023/08/16 03:31:48;;;;;;;4.50;4.10;;;24.70;89.80;;;;;;5072115;28;20204;-71
2023/08/16 03:34:15;;;;;;;4.00;3.70;;;24.70;89.90;;;;;;5071954;28;20304;-71
2023/08/16 03:36:42;;;;;;;4.77;4.07;;;24.70;89.90;;;;;;5072438;28;20240;-71
2023/08/16 03:39:09;;;;;;;4.10;3.80;;;24.70;90.00;;;;;;5071994;28;20220;-70
2023/08/16 03:41:37;;;;;;;4.83;3.60;;;24.70;89.80;;;;;;5072056;28;20219;-71
2023/08/16 03:44:07;;;;;;;4.37;3.97;;;24.80;89.90;;;;;;5071889;28;20266;-71
2023/08/16 03:46:34;;;;;;;4.87;4.07;;;24.80;90.00;;;;;;5072327;28;20631;-71
2023/08/16 03:49:00;;;;;;;4.33;3.93;;;24.80;90.00;;;;;;5071157;28;20224;-71
2023/08/16 03:51:27;;;;;;;6.63;4.83;;;24.80;89.90;;;;;;5072098;28;20581;-71
2023/08/16 03:53:54;;;;;;;5.20;4.40;;;24.80;90.00;;;;;;5071781;28;20212;-70
2023/08/16 03:56:21;;;;;;;5.23;4.67;;;24.80;90.00;;;;;;5072051;28;20240;-71
2023/08/16 03:58:48;;;;;;;4.73;4.33;;;24.80;90.10;;;;;;5071376;28;20208;-71
2023/08/16 04:01:16;;;;;;;5.00;4.53;;;24.80;90.10;;;;;;5071285;28;20225;-70
2023/08/16 04:03:44;;;;;;;5.90;4.67;;;24.80;90.10;;;;;;5071336;28;20193;-71
2023/08/16 04:06:11;;;;;;;6.17;5.40;;;24.80;90.20;;;;;;5071757;28;20205;-70
2023/08/16 04:08:38;;;;;;;5.60;4.90;;;24.80;90.10;;;;;;5071499;28;20263;-72
2023/08/16 04:11:05;;;;;;;6.87;4.70;;;24.80;90.50;;;;;;5071835;28;20201;-71
2023/08/16 04:13:32;;;;;;;7.20;5.00;;;24.80;90.20;;;;;;5071174;28;20201;-71
2023/08/16 04:15:59;;;;;;;4.87;4.37;;;24.70;90.20;;;;;;5071248;28;20221;-71
2023/08/16 04:18:28;;;;;;;4.17;3.77;;;24.80;90.20;;;;;;5071018;28;20209;-71
2023/08/16 04:20:55;;;;;;;5.20;4.70;;;24.70;90.10;;;;;;5071279;28;20239;-71
2023/08/16 04:23:23;;;;;;;6.23;4.70;;;24.70;90.10;;;;;;5071297;28;20579;-71
2023/08/16 04:25:50;;;;;;;5.97;4.50;;;24.70;90.10;;;;;;5071022;28;20232;-71
2023/08/16 04:28:17;;;;;;;4.73;4.20;;;24.80;90.20;;;;;;5070807;28;20258;-71
2023/08/16 04:30:44;;;;;;;4.40;4.00;;;24.80;90.20;;;;;;5071078;28;20208;-71
2023/08/16 04:33:10;;;;;;;4.47;4.07;;;24.80;90.10;;;;;;5070960;28;20582;-71
2023/08/16 04:35:39;;;;;;;4.60;4.17;;;24.80;90.10;;;;;;5070630;28;20197;-71
2023/08/16 04:38:05;;;;;;;5.10;4.60;;;24.80;90.20;;;;;;5071356;28;20209;-72
2023/08/16 04:40:32;;;;;;;4.90;4.30;;;24.70;90.00;;;;;;5071057;28;20232;-71
2023/08/16 04:42:59;;;;;;;5.40;4.27;;;24.60;90.20;;;;;;5070775;28;20217;-71
2023/08/16 04:45:26;;;;;;;4.77;4.37;;;24.60;90.40;;;;;;5070866;28;20208;-71
2023/08/16 04:47:53;;;;;;;5.87;4.40;;;24.60;90.40;;;;;;5070388;28;20560;-71
2023/08/16 04:50:19;;;;;;;5.33;4.50;;;24.60;90.40;;;;;;5070961;28;20224;-71
2023/08/16 04:52:48;;;;;;;9.33;6.00;;;24.60;90.30;;;;;;5070743;28;20225;-71
2023/08/16 04:55:15;;;;;;;11.33;5.60;;;24.60;90.50;;;;;;5070773;28;20223;-72
2023/08/16 04:57:42;;;;;;;9.43;5.37;;;24.60;90.50;;;;;;5070914;28;20194;-71
2023/08/16 05:00:10;;;;;;;8.37;5.50;;;24.70;90.70;;;;;;5070265;28;20475;-71
2023/08/16 05:02:37;;;;;;;8.13;5.37;;;24.70;90.60;;;;;;5079905;28;20237;-71
2023/08/16 05:05:05;;;;;;;12.00;6.23;;;24.70;90.60;;;;;;5081750;28;20711;-70
2023/08/16 05:07:32;;;;;;;8.37;4.50;;;24.80;90.60;;;;;;5079572;28;20635;-71
2023/08/16 05:10:00;;;;;;;4.67;4.20;;;24.80;90.90;;;;;;5090710;28;20202;-71
2023/08/16 05:12:27;;;;;;;4.67;4.27;;;24.90;90.70;;;;;;5090256;28;20299;-71
2023/08/16 05:14:54;;;;;;;5.27;3.60;;;24.90;90.60;;;;;;5072464;28;20574;-71
2023/08/16 05:17:20;;;;;;;4.57;4.07;;;24.90;90.70;;;;;;5070282;28;20228;-71
2023/08/16 05:19:47;;;;;;;4.80;4.20;;;24.90;90.80;;;;;;5070284;28;20227;-70
2023/08/16 05:22:14;;;;;;;4.50;4.10;;;25.00;90.80;;;;;;5070889;28;20602;-71
2023/08/16 05:24:41;;;;;;;4.60;4.17;;;24.90;90.70;;;;;;5076313;28;20216;-71
2023/08/16 05:27:12;;;;;;;4.10;3.77;;;25.00;90.80;;;;;;5079460;28;20207;-71
2023/08/16 05:29:39;;;;;;;4.50;4.13;;;24.90;90.70;;;;;;5082491;28;20217;-71
2023/08/16 05:32:06;;;;;;;5.17;4.67;;;25.00;90.70;;;;;;5081871;28;20217;-71
2023/08/16 05:34:33;;;;;;;5.30;4.60;;;25.00;90.70;;;;;;5071273;28;20201;-70
2023/08/16 05:36:59;;;;;;;6.77;4.10;;;25.00;90.60;;;;;;5087935;28;20215;-71
2023/08/16 05:39:26;;;;;;;6.20;3.80;;;25.00;90.70;;;;;;5078158;28;20290;-72
2023/08/16 05:41:53;;;;;;;5.00;4.50;;;25.00;90.90;;;;;;5091098;28;20245;-71
2023/08/16 05:44:21;;;;;;;4.80;4.30;;;25.10;91.00;;;;;;5074094;28;20220;-72
2023/08/16 05:46:48;;;;;;;5.07;4.33;;;25.10;91.00;;;;;;5074301;28;20205;-72
2023/08/16 05:49:15;;;;;;;5.17;4.70;;;25.10;90.90;;;;;;5091655;28;20259;-71
2023/08/16 05:51:42;;;;;;;5.53;4.63;;;25.20;90.90;;;;;;5094472;28;20253;-71
2023/08/16 05:54:09;;;;;;;6.13;5.13;;;25.20;90.90;;;;;;5093864;28;20668;-71
2023/08/16 05:56:37;;;;;;;5.17;4.67;;;25.20;90.80;;;;;;5094216;28;20212;-71
2023/08/16 05:59:04;;;;;;;5.57;5.07;;;25.20;90.90;;;;;;5082371;28;20300;-71
2023/08/16 06:01:33;;;;;;;5.33;4.80;;;25.20;90.90;;;;;;5073707;28;20236;-71
2023/08/16 06:03:59;;;;;;;6.00;5.30;;;25.20;90.90;;;;;;5073686;28;20215;-71
2023/08/16 06:06:26;;;;;;;6.30;5.67;;;25.30;90.90;;;;;;5074210;28;20205;-71
2023/08/16 06:08:53;;;;;;;5.97;5.37;;;25.30;90.90;;;;;;5085825;28;20493;-71
2023/08/16 06:11:20;;;;;;;6.03;5.37;;;25.30;90.90;;;;;;5094138;28;20294;-72
2023/08/16 06:13:47;;;;;;;6.43;5.60;;;25.30;90.80;;;;;;5092952;28;20706;-71
2023/08/16 06:16:14;;;;;;;6.50;5.40;;;25.30;90.60;;;;;;5093742;28;20196;-71
2023/08/16 06:18:42;;;;;;;7.17;6.13;;;25.30;90.70;;;;;;5080496;28;20208;-71
2023/08/16 06:21:09;;;;;;;5.97;5.37;;;25.40;90.70;;;;;;5094326;28;20568;-70
2023/08/16 06:23:36;;;;;;;6.07;5.47;;;25.40;90.80;;;;;;5093742;28;20216;-71
2023/08/16 06:26:02;;;;;;;5.77;5.27;;;25.40;90.80;;;;;;5085965;28;20723;-71
2023/08/16 06:28:29;;;;;;;6.40;5.53;;;25.40;90.60;;;;;;5085450;28;20201;-71
2023/08/16 06:30:56;;;;;;;5.77;5.10;;;25.50;90.70;;;;;;5094594;28;20203;-70
2023/08/16 06:33:23;;;;;;;5.67;5.07;;;25.50;90.70;;;;;;5075830;28;20280;-71
2023/08/16 06:35:52;;;;;;;5.87;5.37;;;25.60;90.70;;;;;;5054980;28;20208;-71
2023/08/16 06:38:19;;;;;;;6.90;5.93;;;25.70;90.70;;;;;;5074308;28;20327;-71
2023/08/16 06:40:46;;;;;;;6.23;5.63;;;25.70;90.80;;;;;;5081816;28;20220;-71
2023/08/16 06:43:13;;;;;;;6.43;5.47;;;25.70;90.70;;;;;;5083761;28;20311;-71
2023/08/16 06:45:40;;;;;;;5.97;5.20;;;25.80;90.60;;;;;;5073280;28;20227;-70
2023/08/16 06:48:07;;;;;;;6.03;5.43;;;25.80;90.50;;;;;;5073211;28;20224;-72
2023/08/16 06:50:34;;;;;;;5.70;5.13;;;25.90;90.50;;;;;;5073342;28;20225;-71
2023/08/16 06:53:02;;;;;;;6.37;4.83;;;25.90;90.40;;;;;;5073504;28;20213;-71
2023/08/16 06:55:29;;;;;;;6.17;5.07;;;26.00;90.30;;;;;;5070626;28;20215;-71
2023/08/16 06:57:56;;;;;;;5.20;4.70;;;26.10;90.30;;;;;;5072806;28;20233;-70
2023/08/16 07:00:23;;;;;;;5.60;5.10;;;26.10;90.30;;;;;;5072718;28;20241;-71
2023/08/16 07:02:50;;;;;;;6.63;4.80;;;26.10;90.10;;;;;;5072825;28;20235;-71
2023/08/16 07:05:17;;;;;;;4.83;4.40;;;26.20;90.00;;;;;;5072835;28;20215;-71
2023/08/16 07:07:44;;;;;;;4.70;4.30;;;26.20;90.00;;;;;;5073080;28;20222;-71
2023/08/16 07:10:12;;;;;;;4.53;4.13;;;26.30;89.80;;;;;;5073275;28;20233;-69
2023/08/16 07:12:39;;;;;;;4.53;4.13;;;26.30;89.70;;;;;;5073395;28;20567;-71
2023/08/16 07:15:07;;;;;;;4.57;4.17;;;26.30;90.20;;;;;;5073392;28;20233;-71
2023/08/16 07:17:34;;;;;;;4.30;3.90;;;26.40;89.90;;;;;;5073579;28;20212;-70
2023/08/16 07:20:00;;;;;;;4.93;4.37;;;26.50;90.00;;;;;;5084206;28;20227;-71
2023/08/16 07:22:28;;;;;;;5.57;3.90;;;26.50;90.00;;;;;;5093629;28;20210;-71
2023/08/16 07:24:54;;;;;;;4.57;4.17;;;26.60;89.90;;;;;;5093611;28;20565;-71
2023/08/16 07:27:24;;;;;;;4.10;3.70;;;26.60;89.80;;;;;;5094866;28;20291;-71
2023/08/16 07:29:52;;;;;;;5.90;3.90;;;26.70;90.00;;;;;;5094739;28;20204;-70
2023/08/16 07:32:19;;;;;;;3.57;3.27;;;26.80;89.90;;;;;;5093854;28;20709;-70
2023/08/16 07:34:46;;;;;;;4.00;3.70;;;26.80;89.90;;;;;;5109391;28;20271;-70
2023/08/16 07:37:14;;;;;;;3.60;3.30;;;26.80;90.00;;;;;;5109993;28;20214;-71
2023/08/16 07:39:41;;;;;;;4.10;3.70;;;26.80;89.90;;;;;;5093967;28;20210;-70
2023/08/16 07:42:08;;;;;;;4.00;3.70;;;26.90;90.00;;;;;;5116020;28;20260;-70
2023/08/16 07:44:37;;;;;;;3.73;3.43;;;26.90;90.00;;;;;;5094790;28;20228;-70
2023/08/16 07:47:04;;;;;;;4.27;3.83;;;26.90;90.10;;;;;;5076053;28;20213;-71
2023/08/16 07:49:31;;;;;;;5.80;4.03;;;26.90;90.00;;;;;;5072897;28;20202;-71
2023/08/16 07:51:58;;;;;;;4.13;3.57;;;27.00;90.00;;;;;;5073108;28;20215;-71
2023/08/16 07:54:26;;;;;;;4.90;4.13;;;27.00;90.00;;;;;;5072490;28;20311;-72
2023/08/16 07:56:53;;;;;;;5.00;3.73;;;27.00;89.80;;;;;;5072399;28;20239;-71
2023/08/16 07:59:20;;;;;;;4.10;3.70;;;27.10;89.90;;;;;;5072735;28;20626;-71
2023/08/16 08:01:49;;;;;;;4.30;3.60;;;27.20;89.80;;;;;;5072638;28;20270;-71
2023/08/16 08:04:15;;;;;;;4.37;3.77;;;27.20;90.00;;;;;;5072731;28;20270;-71
2023/08/16 08:06:42;;;;;;;5.57;3.23;;;27.30;89.80;;;;;;5072732;28;20215;-71
2023/08/16 08:09:09;;;;;;;4.67;3.87;;;27.40;89.70;;;;;;5071873;28;20223;-71
2023/08/16 08:11:37;;;;;;;4.93;3.80;;;27.50;89.70;;;;;;5072503;28;20207;-71
2023/08/16 08:14:04;;;;;;;3.50;3.20;;;27.50;89.70;;;;;;5072333;28;20706;-71
2023/08/16 08:16:31;;;;;;;4.67;3.50;;;27.60;89.40;;;;;;5072749;28;20294;-71
2023/08/16 08:19:00;;;;;;;4.40;3.60;;;27.70;89.10;;;;;;5072143;28;20261;-70
2023/08/16 08:21:27;;;;;;;4.37;3.63;;;27.70;88.80;;;;;;5072520;28;20303;-70
2023/08/16 08:23:54;;;;;;;4.40;3.87;;;27.90;89.20;;;;;;5071793;28;20206;-71
2023/08/16 08:26:21;;;;;;;3.37;3.10;;;27.90;89.00;;;;;;5072384;28;20246;-70
2023/08/16 08:28:48;;;;;;;4.27;3.40;;;28.10;89.00;;;;;;5071859;28;20666;-72
2023/08/16 08:31:15;;;;;;;3.40;3.10;;;28.10;88.50;;;;;;5072246;28;20238;-71
2023/08/16 08:33:41;;;;;;;4.63;4.23;;;28.20;88.10;;;;;;5072363;28;20235;-70
2023/08/16 08:36:10;;;;;;;4.33;3.30;;;28.20;88.00;;;;;;5071995;28;20227;-72
2023/08/16 08:38:36;;;;;;;4.10;3.47;;;28.30;87.50;;;;;;5072002;28;20198;-71
2023/08/16 08:41:03;;;;;;;4.00;3.70;;;28.40;87.90;;;;;;5072179;28;20592;-71
2023/08/16 08:43:34;;;;;;;3.43;3.10;;;28.40;86.90;;;;;;5083771;28;20234;-71
2023/08/16 08:46:02;;;;;;;3.47;3.17;;;28.50;86.70;;;;;;5091941;28;20303;-71
2023/08/16 08:48:30;;;;;;;3.43;3.13;;;28.50;86.30;;;;;;5092078;28;20227;-72
2023/08/16 08:50:58;;;;;;;3.27;2.90;;;28.70;86.50;;;;;;5092323;28;20223;-72
2023/08/16 08:53:27;;;;;;;4.73;3.30;;;28.80;86.60;;;;;;5092059;28;20207;-71
2023/08/16 08:55:55;;;;;;;3.77;3.47;;;28.90;85.60;;;;;;5091854;28;20216;-71
2023/08/16 08:58:24;;;;;;;3.40;3.10;;;28.90;85.50;;;;;;5092079;28;20234;-71
2023/08/16 09:00:53;;;;;;;4.80;3.43;;;29.00;85.00;;;;;;5091798;28;20251;-71
2023/08/16 09:03:23;;;;;;;3.77;3.47;;;29.00;84.50;;;;;;5092036;28;20203;-71
2023/08/16 09:05:53;;;;;;;3.67;3.37;;;29.10;84.70;;;;;;5091545;28;20233;-71
2023/08/16 09:08:21;;;;;;;4.03;3.63;;;29.20;84.40;;;;;;5091344;28;20210;-70
2023/08/16 09:10:50;;;;;;;4.13;3.07;;;29.20;84.40;;;;;;5091899;28;20215;-71
2023/08/16 09:13:19;;;;;;;5.70;3.50;;;29.30;83.80;;;;;;5092062;28;20212;-71
2023/08/16 09:15:46;;;;;;;4.50;3.63;;;29.40;84.20;;;;;;5091779;28;20216;-70
2023/08/16 09:18:14;;;;;;;3.60;3.30;;;29.50;83.90;;;;;;5091057;28;20242;-71
2023/08/16 09:20:42;;;;;;;3.70;3.20;;;29.60;83.00;;;;;;5091335;28;20295;-71
2023/08/16 09:23:13;;;;;;;3.87;3.53;;;29.70;83.00;;;;;;5091163;28;20303;-73
2023/08/16 09:25:40;;;;;;;3.90;3.47;;;29.90;82.20;;;;;;5091819;28;20260;-70
2023/08/16 09:28:11;;;;;;;3.93;3.53;;;30.00;81.80;;;;;;5091610;28;20208;-71
2023/08/16 09:30:38;;;;;;;3.40;3.10;;;30.10;81.10;;;;;;5091260;28;20318;-71
2023/08/16 09:33:05;;;;;;;4.17;3.33;;;30.10;80.50;;;;;;5091812;28;20208;-72
2023/08/16 09:35:34;;;;;;;3.60;3.30;;;30.20;80.40;;;;;;5091157;28;20235;-71
2023/08/16 09:38:02;;;;;;;3.77;3.20;;;30.30;80.30;;;;;;5091467;28;20200;-71
2023/08/16 09:40:29;;;;;;;3.60;3.30;;;30.40;80.10;;;;;;5091332;28;20214;-72
2023/08/16 09:42:59;;;;;;;3.90;3.50;;;30.50;80.50;;;;;;5084562;28;20221;-72
2023/08/16 09:45:31;;;;;;;4.83;3.50;;;30.60;80.20;;;;;;5071007;28;20638;-70
2023/08/16 09:47:59;;;;;;;3.50;3.20;;;30.70;79.90;;;;;;5071131;28;20224;-71
2023/08/16 09:50:27;;;;;;;4.23;3.20;;;30.70;79.30;;;;;;5070764;28;20205;-70
2023/08/16 09:52:54;;;;;;;3.50;3.20;;;30.70;78.90;;;;;;5071131;28;20225;-71
2023/08/16 09:55:28;;;;;;;3.77;3.37;;;30.80;78.60;;;;;;5071116;28;20193;-71
2023/08/16 09:57:58;;;;;;;7.60;3.60;;;30.80;78.40;;;;;;5071536;28;20200;-71
2023/08/16 10:00:26;;;;;;;4.20;3.40;;;30.90;78.60;;;;;;5070902;28;20208;-69
2023/08/16 10:02:55;;;;;;;4.43;3.53;;;31.00;78.40;;;;;;5071002;28;20231;-72
2023/08/16 10:05:22;;;;;;;3.80;3.50;;;31.10;77.90;;;;;;5071001;28;20244;-71
2023/08/16 10:07:49;;;;;;;4.00;3.60;;;31.20;78.00;;;;;;5071012;28;20267;-70
2023/08/16 10:10:16;;;;;;;3.73;3.43;;;31.30;78.00;;;;;;5071216;28;20263;-71
2023/08/16 10:12:44;;;;;;;3.93;3.53;;;31.40;77.80;;;;;;5071052;28;20679;-72
2023/08/16 10:15:11;;;;;;;4.30;3.53;;;31.50;76.70;;;;;;5071236;28;20213;-70
2023/08/16 10:17:40;;;;;;;3.73;3.43;;;31.60;76.50;;;;;;5071039;28;20209;-70
2023/08/16 10:20:15;;;;;;;4.10;3.70;;;31.70;76.50;;;;;;5070365;28;20202;-70
2023/08/16 10:22:43;;;;;;;4.17;3.77;;;31.70;75.40;;;;;;5070921;28;20246;-70
2023/08/16 10:25:16;;;;;;;5.30;3.63;;;31.80;76.10;;;;;;5070749;28;20218;-72
2023/08/16 10:27:45;;;;;;;4.13;3.73;;;31.90;75.40;;;;;;5071049;28;20654;-71
2023/08/16 10:30:19;;;;;;;4.43;3.60;;;32.00;74.70;;;;;;5073534;28;20607;-72
2023/08/16 10:32:48;;;;;;;4.10;3.80;;;32.10;74.10;;;;;;5074513;28;20198;-70
2023/08/16 10:35:17;;;;;;;3.97;3.57;;;32.20;74.20;;;;;;5073721;28;20249;-71
2023/08/16 10:37:46;;;;;;;4.13;3.73;;;32.20;73.40;;;;;;5074266;28;20206;-72
2023/08/16 10:40:17;;;;;;;4.03;3.70;;;32.30;73.20;;;;;;5074137;28;20263;-71
2023/08/16 10:42:52;;;;;;;6.30;3.83;;;32.40;73.10;;;;;;5079662;28;20254;-71
2023/08/16 10:45:27;;;;;;;4.57;3.73;;;32.60;73.80;;;;;;5094444;28;20234;-72
2023/08/16 10:47:54;;;;;;;4.47;3.57;;;32.70;72.30;;;;;;5094153;28;20205;-72
2023/08/16 10:50:32;;;;;;;4.33;3.73;;;32.80;72.20;;;;;;5093852;28;20202;-71
2023/08/16 10:52:59;;;;;;;4.43;3.80;;;32.80;71.10;;;;;;5094732;28;20584;-71
2023/08/16 10:55:26;;;;;;;5.13;3.63;;;33.00;72.30;;;;;;5094253;28;20210;-72
2023/08/16 10:57:54;;;;;;;4.30;3.50;;;33.10;71.80;;;;;;5094290;28;20227;-72
2023/08/16 11:00:32;;;;;;;3.90;3.60;;;33.20;70.60;;;;;;5093867;28;20762;-71
2023/08/16 11:02:59;;;;;;;4.43;4.00;;;33.40;70.00;;;;;;5093967;28;20272;-70
2023/08/16 11:05:30;;;;;;;4.27;3.43;;;33.50;70.20;;;;;;5093566;28;20195;-71
2023/08/16 11:07:58;;;;;;;4.47;3.87;;;33.60;70.00;;;;;;5094053;28;20681;-71
2023/08/16 11:10:33;;;;;;;4.23;3.63;;;33.70;69.80;;;;;;5093583;28;20211;-71
2023/08/16 11:13:00;;;;;;;3.90;3.60;;;33.70;69.20;;;;;;5094276;28;20191;-71
2023/08/16 11:15:27;;;;;;;5.70;3.80;;;33.80;68.90;;;;;;5093646;28;20647;-71
2023/08/16 11:17:55;;;;;;;5.20;3.70;;;33.80;68.60;;;;;;5093494;28;20213;-71
2023/08/16 11:20:24;;;;;;;4.40;4.00;;;33.90;68.00;;;;;;5093343;28;20239;-71
2023/08/16 11:22:53;;;;;;;5.47;3.73;;;33.90;67.90;;;;;;5093786;28;20311;-70
2023/08/16 11:25:20;;;;;;;4.73;3.70;;;33.90;67.60;;;;;;5093775;28;20203;-70
2023/08/16 11:27:47;;;;;;;4.20;3.70;;;34.00;68.00;;;;;;5094066;28;20200;-71
2023/08/16 11:30:14;;;;;;;4.30;4.00;;;34.10;67.80;;;;;;5093063;28;20210;-72
2023/08/16 11:32:41;;;;;;;6.70;4.10;;;34.20;67.70;;;;;;5093138;28;20719;-71
2023/08/16 11:35:09;;;;;;;4.50;4.10;;;34.30;67.60;;;;;;5093782;28;20247;-72
2023/08/16 11:37:36;;;;;;;4.93;4.30;;;34.30;66.40;;;;;;5093334;28;20208;-71
2023/08/16 11:40:09;;;;;;;4.13;3.73;;;34.40;66.30;;;;;;5093150;28;20215;-71
2023/08/16 11:42:36;;;;;;;4.30;3.90;;;34.40;65.90;;;;;;5088525;28;20619;-72
2023/08/16 11:45:03;;;;;;;4.50;4.10;;;34.40;65.60;;;;;;5073139;28;20247;-72
2023/08/16 11:47:30;;;;;;;5.90;3.80;;;34.50;66.00;;;;;;5072921;28;20212;-71
2023/08/16 11:49:57;;;;;;;4.33;3.67;;;34.60;66.20;;;;;;5072802;28;20253;-71
2023/08/16 11:52:25;;;;;;;4.30;3.90;;;34.70;66.50;;;;;;5073154;28;20530;-71
2023/08/16 11:55:05;;;;;;;6.37;3.93;;;34.80;65.90;;;;;;5073056;28;20215;-72
2023/08/16 11:57:32;;;;;;;4.30;3.90;;;34.90;63.70;;;;;;5078916;28;20212;-70
2023/08/16 12:00:01;;;;;;;7.00;4.33;;;35.00;65.00;;;;;;5075810;28;20227;-70
2023/08/16 12:02:29;;;;;;;4.37;3.97;;;35.00;64.80;;;;;;5072586;28;20229;-72
2023/08/16 12:04:55;;;;;;;4.00;3.60;;;35.10;64.10;;;;;;5072743;28;20213;-70
2023/08/16 12:07:22;;;;;;;5.63;4.00;;;35.10;63.60;;;;;;5072980;28;20251;-71
2023/08/16 12:09:50;;;;;;;4.23;3.83;;;35.20;63.80;;;;;;5072874;28;20524;-71
2023/08/16 12:12:18;;;;;;;4.97;3.87;;;35.20;63.70;;;;;;5072696;28;20316;-72
2023/08/16 12:14:44;;;;;;;5.57;3.53;;;35.30;63.40;;;;;;5072584;28;20220;-72
2023/08/16 12:17:11;;;;;;;4.77;3.87;;;35.40;63.10;;;;;;5071984;28;20210;-72
2023/08/16 12:19:38;;;;;;;5.77;4.13;;;35.50;63.30;;;;;;5072599;28;20239;-72
2023/08/16 12:22:05;;;;;;;3.73;3.43;;;35.60;63.10;;;;;;5072351;28;20778;-71
2023/08/16 12:24:33;;;;;;;4.83;3.67;;;35.60;62.20;;;;;;5072377;28;20209;-71
2023/08/16 12:27:00;;;;;;;6.50;3.63;;;35.60;62.30;;;;;;5072250;28;20714;-70
2023/08/16 12:29:29;;;;;;;4.40;4.00;;;35.60;62.70;;;;;;5071993;28;20210;-71
2023/08/16 12:31:56;;;;;;;4.00;3.70;;;35.70;61.50;;;;;;5072045;28;20459;-71
2023/08/16 12:34:23;;;;;;;3.93;3.53;;;35.80;60.90;;;;;;5072318;28;20219;-72
2023/08/16 12:36:50;;;;;;;4.30;3.90;;;35.80;60.90;;;;;;5072202;28;20234;-73
2023/08/16 12:39:16;;;;;;;4.50;4.10;;;35.80;60.80;;;;;;5071946;28;20664;-70
2023/08/16 12:41:43;;;;;;;6.23;4.13;;;35.80;60.80;;;;;;5072218;28;20205;-73
2023/08/16 12:44:11;;;;;;;4.93;3.77;;;35.80;60.10;;;;;;5089324;28;20259;-71
2023/08/16 12:46:39;;;;;;;4.00;3.70;;;35.90;60.40;;;;;;5091954;28;20205;-72
2023/08/16 12:49:06;;;;;;;4.80;3.57;;;36.00;60.00;;;;;;5091889;28;20716;-72